Cartier, Canada
Current Conditions -  °F | °C
As of 7:00 PM on Wednesday 17 Dec 2014 (Local Time) from CYSB Reporting Station
Light Snow Light Snow  
Wind Chill:   Ceiling: 900
Heat Index: 19°   Visibility: 6mi
Dew Point: 16°   Wind: 16mph
Humidity: 86%   Direction: 10°N
Pressure: 29.91"   Gusts: 24mph
Location:  46.7°N, 81.55°W
Report Text: CYSB 180000Z 01014G21KT 6SM -SN DRSN BKN009 OVC046 M07/M09 A2991 RMK SF5SC3 SLP148
Loading
Personal Weather Stations






























Interactive Weather Map New forecast layout! Learn more

10-Day Weather Forecast

Advertisements
Track Severe Weather on mobile